x

Diamond Shoals (41025) Wave Buoy

1:50 - Mon 22nd May 2017 All times are EDT. -4 hours from GMT.

  • Sig Wave height 3.9ft
  • Swell Direction
  • Peak Period 8s
  • Average Period 6s
  • Wind
    11mph, 13mph gusts
  • Sea Temp 78°f
  • Luft Temp 77°f
  • Sea Pressure 1017.4mb
  • Diamond Shoals
  • Diamond Shoals

More Historic Weather Station data

Upgrade to MSW Pro to gain access to the past 30 days of data for over 8000 Wavebouys and Weather Stations around the globe.

Join Pro

Comparision Forecast

View Surf forecast
   
Mo 05/22 1:50 4ft 8s 6s 11 13 mph 1017.4mb 78f 77f
12:50 3.5ft 8s 6s 9 11 mph 1018.1mb 78f 76f
11:50 4ft 8s 6s 9 9 mph 1018.6mb 78f 75f
10:50 4ft 8s 6s 7 9 mph 1019.1mb 78f 75f
8:50 4.5ft 8s 6s 7 9 mph 1019.3mb 78f 74f
7:50 4ft 9s 6s 7 7 mph 1019.5mb 78f 73f
6:50 4.5ft 10s 6s 9 11 mph 1019.1mb 78f 73f
5:50 4.5ft 8s 6s 11 16 mph 1018.8mb 78f 73f
4:50 4.5ft 8s 5s 16 18 mph 1018.6mb 79f 76f
3:50 5ft 8s 5s 18 20 mph 1018.5mb 79f 76f
2:50 5ft 7s 5s 18 22 mph 1018.7mb 79f 76f
1:50 5ft 9s 5s 18 22 mph 1019.3mb 79f 76f
12:50 4.5ft 8s 5s 20 22 mph 1019.7mb 79f 76f
So 05/21 11:50 5ft 8s 5s 18 20 mph 1020.3mb 79f 76f
10:50 4.5ft 8s 5s 18 22 mph 1020.6mb 79f 76f
9:50 5ft 9s 5s 20 22 mph 1020.7mb 79f 76f
8:50 4.5ft 11s 5s 20 25 mph 1020.3mb 78f 76f
7:50 4.5ft 11s 6s 18 20 mph 1020.4mb 78f 77f
6:50 4ft 9s 6s 13 20 mph 1020.2mb 78f 77f
5:50 4.5ft 10s 6s 13 16 mph 1020.1mb 78f 71f
4:50 4ft 10s 5s 16 18 mph 1020.5mb 78f 69f
3:50 4ft 9s 5s 18 20 mph 1020.7mb 77f 69f
2:50 3.5ft 8s 5s 16 18 mph 1021.8mb 77f 69f
1:50 4ft 9s 5s 16 18 mph 1021.8mb 77f 69f
12:50 4ft 10s 5s 18 20 mph 1022.4mb 77f 68f
11:50 4ft 8s 5s 16 18 mph 1023mb 76f 68f
10:50 3.5ft 9s 5s 18 20 mph 1022.6mb 75f 68f
9:50 3ft 7s 4s 18 22 mph 1022.8mb 75f 68f
8:50 2.5ft 7s 4s 18 20 mph 1023.2mb 75f 68f
7:50 3.5ft 7s 4s 18 20 mph 1022.5mb 75f 67f
6:50 3.5ft 6s 5s 16 20 mph 1022mb 75f 67f
5:50 3.5ft 7s 5s 18 20 mph 1021.2mb 75f 67f
4:50 3.5ft 8s 5s 18 20 mph 1021.2mb 75f 67f
3:50 3.5ft 7s 5s 13 16 mph 1020.8mb 75f 68f
2:50 3.5ft 7s 5s 16 18 mph 1021.5mb 75f 67f
1:50 3.5ft 4s 4s 16 18 mph 1021.8mb 75f 68f
12:50 3ft 5s 4s 18 20 mph 1021.8mb 74f 68f
Sa 05/20 11:50 3.5ft 4s 4s 16 22 mph 1021.8mb 74f 68f
10:50 3ft 4s 4s 20 22 mph 1021.5mb 74f 69f
9:50 3ft 4s 4s 20 22 mph 1021.6mb 74f 69f
8:50 3ft 4s 4s 18 22 mph 1020.7mb 74f 69f
7:50 2.5ft 3s 4s 16 20 mph 1021.2mb 75f 69f
6:50 2.5ft 4s 4s 13 16 mph 1020.3mb 75f 70f
5:50 2.5ft 4s 4s 18 22 mph 1019.9mb 75f 71f
4:50 2.5ft 4s 4s 11 13 mph 1019.3mb 75f 75f
3:50 2.5ft 4s 4s 13 16 mph 1019.1mb 75f 75f
2:50 2.5ft 4s 4s 13 16 mph 1019.4mb 75f 75f
1:50 2.5ft 4s 4s 13 16 mph 1019.9mb 75f 74f
12:50 2.5ft 4s 4s 16 16 mph 1019.7mb 75f 74f
11:50 2.5ft 4s 4s 16 18 mph 1019.5mb 74f 74f
10:50 3ft 4s 4s 16 18 mph 1019.1mb 74f 74f
9:50 3ft 4s 4s 16 18 mph 1019.5mb 74f 74f
8:50 3ft 4s 4s 18 20 mph 1019.3mb 74f 74f
7:50 2.5ft 4s 4s 16 18 mph 1019.3mb 74f 74f
6:50 2.5ft 4s 4s 16 18 mph 1019.2mb 74f 74f
5:50 2.5ft 4s 4s 16 18 mph 1018.6mb 74f 74f
4:50 3ft 4s 4s 16 18 mph 1018.4mb 74f 74f
3:50 3ft 4s 4s 16 18 mph 1018.1mb 74f 74f
2:50 3ft 4s 4s 16 18 mph 1018.2mb 74f 74f
1:50 2.5ft 4s 4s 16 20 mph 1018.5mb 74f 74f
12:50 3ft 5s 4s 16 18 mph 1018.5mb 74f 75f
Fr 05/19 11:50 3ft 5s 4s 16 18 mph 1018.7mb 74f 74f
10:50 3ft 4s 4s 16 20 mph 1018.9mb 74f 74f
9:50 3ft 4s 4s 16 18 mph 1019.1mb 74f 75f
8:50 3ft 4s 4s 18 20 mph 1019mb 74f 75f
7:50 3ft 4s 4s 18 22 mph 1018.5mb 75f 75f
6:50 2.5ft 4s 4s 20 22 mph 1017.7mb 75f 75f
5:50 2.5ft 4s 4s 16 20 mph 1018.1mb 75f 75f
4:50 2.5ft 4s 4s 18 20 mph 1018.4mb 75f 75f
3:50 2.5ft 4s 4s 18 22 mph 1018.5mb 75f 75f
2:50 2.5ft 4s 4s 18 22 mph 1018.6mb 75f 74f
1:50 2.5ft 4s 4s 18 20 mph 1019.2mb 75f 74f
12:50 2.5ft 4s 4s 16 18 mph 1019.7mb 74f 74f
11:50 2.5ft 5s 4s 13 18 mph 1020.2mb 74f 74f
10:50 2.5ft 5s 4s 13 16 mph 1020.4mb 74f 74f
9:50 2.5ft 5s 4s 13 16 mph 1020.5mb 74f 74f
8:50 2.5ft 5s 4s 13 16 mph 1020.9mb 74f 74f
7:50 2.5ft 5s 4s 16 18 mph 1021.1mb 74f 74f
6:50 3ft 5s 4s 16 20 mph 1020.5mb 74f 74f
5:50 3ft 5s 4s 13 18 mph 1020mb 74f 74f
4:50 3.5ft 5s 4s 18 20 mph 1019.5mb 74f 74f
3:50 3.5ft 5s 4s 18 20 mph 1019.7mb 74f 74f
2:50 3.5ft 5s 4s 18 22 mph 1019.2mb 74f 75f
1:50 3.5ft 5s 4s 18 20 mph 1019.4mb 74f 75f
12:50 3.5ft 4s 4s 18 20 mph 1020.3mb 74f 75f
Do 05/18 11:50 3.5ft 4s 4s 16 20 mph 1020.5mb 74f 76f
10:50 3ft 4s 4s 13 16 mph 1020.9mb 74f 75f
9:50 2.5ft 4s 4s 16 18 mph 1020.5mb 74f 75f
8:50 2.5ft 4s 4s 16 18 mph 1020.1mb 73f 75f
7:50 2.5ft 4s 4s 16 18 mph 1020.1mb 73f 75f